Mirador — WDF3O95 — position and weather

sailwx.info

Track history (hours):
 
Tides and Currents Weather Stations Pressure Air Temp Water Temp Dewpoint Dewpoint Depression Visibility Wind Speed Wind Dir Waves Ship Positions

Mirador

Last reported at 2014-Oct-02 18:33 UTC. Time now 2014-Oct-25 21:14 UTC.
Position N 27°30' W 082°42'.
Warning: this ship's position is 23 days out of date.

Length 23 m; draft 2 m.

Type: Pleasure craft. MMSI: 367435790.

Date/timePositionNaut miles runAvg speedWind from/ knotsBaromVisibWave heightAir tempDewpointWater temp
2014-Oct-02 18:33N 27°30' W 082°42'7 6.5
2014-Oct-02 17:32N 27°36' W 082°40'9 9.1
2014-Oct-02 16:34N 27°45' W 082°37'6 6.1
2014-Oct-02 15:33N 27°50' W 082°34'3 1.0
2014-Oct-02 12:28N 27°53' W 082°32'7 7.3
2014-Oct-02 11:33N 27°47' W 082°36'2 0.1
2014-Oct-01 20:32N 27°47' W 082°38'0 0.1
2014-Oct-01 18:33N 27°47' W 082°38'7 7.1
2014-Oct-01 17:33N 27°40' W 082°37'7 7.2
2014-Oct-01 16:31N 27°34' W 082°42'  
Track history (hours):
 
Tides and Currents Weather Stations Pressure Air Temp Water Temp Dewpoint Dewpoint Depression Visibility Wind Speed Wind Dir Waves Ship Positions

Mirador

Last reported at 2014-Oct-02 18:33 UTC. Time now 2014-Oct-25 21:14 UTC.
Position N 27°30' W 082°42'.
Warning: this ship's position is 23 days out of date.

Length 23 m; draft 2 m.

Type: Pleasure craft. MMSI: 367435790.

Date/timePositionNaut miles runAvg speedWind from/ knotsBaromVisibWave heightAir tempDewpointWater temp
2014-Oct-02 18:33N 27°30' W 082°42'7 6.5
2014-Oct-02 17:32N 27°36' W 082°40'9 9.1
2014-Oct-02 16:34N 27°45' W 082°37'6 6.1
2014-Oct-02 15:33N 27°50' W 082°34'3 1.0
2014-Oct-02 12:28N 27°53' W 082°32'7 7.3
2014-Oct-02 11:33N 27°47' W 082°36'2 0.1
2014-Oct-01 20:32N 27°47' W 082°38'0 0.1
2014-Oct-01 18:33N 27°47' W 082°38'7 7.1
2014-Oct-01 17:33N 27°40' W 082°37'7 7.2
2014-Oct-01 16:31N 27°34' W 082°42'  

Dump ship's entire track history